DAL8718 CYWG-KGFK
Flight info
| Callsign | DAL8718 |
|---|---|
| Flight time | N/A |
| Altitude | 20000 |
| Route | KAVKI DCT IKLUG/N0397F190 |
| Aircraft | C25C/M-SDE2E3FGHRWXY/LB1 |
Departure
| Time | 2026-05-07 00:57 |
|---|---|
| Airport | Winnipeg / James Armstrong Richardson International Airport (CYWG) |
Arrival
| Time | N/A |
|---|---|
| Airport | Grand Forks International Airport (KGFK) |
| Time | Latitude | Longitude | Altitude | Speed | Heading |
|---|---|---|---|---|---|
| 2026-05-07 00:37 | 49.90027 | -97.22942 | 775 ft | 0 kts | 235° |
| 2026-05-07 00:50 | 49.89997 | -97.22987 | 775 ft | 9 kts | 205° |
| 2026-05-07 00:51 | 49.89935 | -97.22943 | 775 ft | 13 kts | 138° |
| 2026-05-07 00:51 | 49.89861 | -97.22823 | 774 ft | 18 kts | 129° |
| 2026-05-07 00:51 | 49.89778 | -97.22668 | 775 ft | 19 kts | 130° |
| 2026-05-07 00:51 | 49.89707 | -97.22538 | 776 ft | 11 kts | 133° |
| 2026-05-07 00:52 | 49.89705 | -97.22534 | 776 ft | 0 kts | 127° |
| 2026-05-07 00:52 | 49.89674 | -97.22547 | 775 ft | 12 kts | 216° |
| 2026-05-07 00:52 | 49.89587 | -97.22692 | 773 ft | 22 kts | 229° |
| 2026-05-07 00:52 | 49.89482 | -97.22883 | 769 ft | 24 kts | 249° |
| 2026-05-07 00:53 | 49.89497 | -97.23128 | 769 ft | 23 kts | 277° |
| 2026-05-07 00:53 | 49.89510 | -97.23303 | 770 ft | 7 kts | 278° |
| 2026-05-07 00:53 | 49.89521 | -97.23434 | 772 ft | 20 kts | 276° |
| 2026-05-07 00:53 | 49.89529 | -97.23535 | 774 ft | 0 kts | 277° |
| 2026-05-07 00:54 | 49.89530 | -97.23554 | 774 ft | 9 kts | 277° |
| 2026-05-07 00:54 | 49.89547 | -97.23767 | 779 ft | 26 kts | 276° |
| 2026-05-07 00:54 | 49.89567 | -97.24024 | 783 ft | 10 kts | 277° |
| 2026-05-07 00:54 | 49.89567 | -97.24028 | 783 ft | 0 kts | 277° |
| 2026-05-07 00:56 | 49.89567 | -97.24031 | 783 ft | 2 kts | 277° |
| 2026-05-07 00:57 | 49.89582 | -97.24136 | 784 ft | 14 kts | 301° |
| 2026-05-07 00:57 | 49.89669 | -97.24153 | 784 ft | 16 kts | 8° |
| 2026-05-07 00:57 | 49.90227 | -97.24024 | 1430 ft | 215 kts | 8° |
| 2026-05-07 00:57 | 49.90614 | -97.23939 | 1426 ft | 227 kts | 7° |
| 2026-05-07 00:58 | 49.89556 | -97.22653 | 773 ft | 0 kts | 249° |